createdAt,value
2019-02-15T00:02:39.318Z,39.80
2019-02-15T00:05:44.687Z,39.70
2019-02-15T00:08:50.094Z,39.60
2019-02-15T00:11:55.495Z,39.70
2019-02-15T00:15:00.874Z,39.60
2019-02-15T00:18:34.254Z,39.60
2019-02-15T00:21:42.822Z,39.50
2019-02-15T00:24:49.445Z,39.50
2019-02-15T00:27:54.814Z,39.50
2019-02-15T00:31:01.439Z,39.60
2019-02-15T00:34:06.848Z,39.50
2019-02-15T00:37:12.276Z,39.60
2019-02-15T00:40:19.247Z,39.50
2019-02-15T00:43:25.410Z,39.50
2019-02-15T00:46:57.812Z,39.60
2019-02-15T00:50:15.106Z,39.60
2019-02-15T00:53:37.895Z,39.60
2019-02-15T00:56:57.821Z,39.60
2019-02-15T01:00:35.665Z,39.70
2019-02-15T01:03:47.121Z,39.60
2019-02-15T01:07:17.447Z,39.60
2019-02-15T01:10:30.681Z,39.70
2019-02-15T01:13:36.067Z,39.70
2019-02-15T01:16:41.456Z,39.70
2019-02-15T01:19:46.855Z,39.70
2019-02-15T01:22:52.267Z,39.70
2019-02-15T01:26:10.502Z,39.60
2019-02-15T01:29:47.074Z,39.60
2019-02-15T01:33:03.140Z,39.60
2019-02-15T01:36:24.497Z,39.60
2019-02-15T01:39:40.006Z,39.60
2019-02-15T01:43:01.303Z,39.60
2019-02-15T01:46:19.489Z,40.20
2019-02-15T01:49:24.904Z,39.50
2019-02-15T01:52:31.400Z,39.60
2019-02-15T01:55:37.769Z,39.50
2019-02-15T01:58:43.206Z,39.60
2019-02-15T02:01:48.554Z,39.50
2019-02-15T02:04:53.959Z,39.50
2019-02-15T02:08:00.837Z,39.50
2019-02-15T02:11:06.233Z,39.50
2019-02-15T02:14:11.617Z,39.50
2019-02-15T02:17:18.125Z,39.50
2019-02-15T02:20:23.540Z,39.50
2019-02-15T02:23:28.953Z,39.50
2019-02-15T02:26:36.472Z,39.50
2019-02-15T02:29:41.865Z,40.30
2019-02-15T02:32:47.245Z,39.50
2019-02-15T02:35:52.674Z,39.50
2019-02-15T02:38:58.046Z,39.60
2019-02-15T02:42:03.453Z,39.60
2019-02-15T02:45:08.897Z,39.70
2019-02-15T02:48:14.386Z,39.70
2019-02-15T02:51:19.777Z,39.70
2019-02-15T02:54:25.187Z,39.70
2019-02-15T02:57:33.418Z,39.80
2019-02-15T03:00:38.896Z,39.90
2019-02-15T03:03:45.474Z,40.50
2019-02-15T03:06:50.870Z,39.90
2019-02-15T03:09:57.285Z,39.90
2019-02-15T03:13:02.649Z,40.00
2019-02-15T03:16:08.053Z,40.00
2019-02-15T03:19:13.473Z,40.00
2019-02-15T03:22:18.891Z,39.90
2019-02-15T03:25:24.311Z,40.00
2019-02-15T03:28:29.701Z,40.10
2019-02-15T03:31:35.108Z,40.00
2019-02-15T03:34:40.540Z,39.90
2019-02-15T03:38:06.581Z,39.80
2019-02-15T03:41:29.189Z,39.70
2019-02-15T03:44:34.913Z,39.60
2019-02-15T03:47:40.317Z,39.50
2019-02-15T03:50:47.521Z,39.40
2019-02-15T03:53:53.142Z,39.40
2019-02-15T03:56:58.842Z,39.30
2019-02-15T04:00:05.272Z,39.30
2019-02-15T04:03:10.953Z,39.10
2019-02-15T04:06:16.442Z,39.10
2019-02-15T04:09:21.827Z,39.10
2019-02-15T04:12:27.317Z,39.00
2019-02-15T04:15:32.723Z,39.10
2019-02-15T04:18:38.123Z,39.00
2019-02-15T04:21:43.540Z,39.00
2019-02-15T04:24:48.931Z,38.90
2019-02-15T04:27:54.345Z,38.90
2019-02-15T04:30:59.726Z,39.00
2019-02-15T04:34:05.089Z,39.00
2019-02-15T04:37:10.497Z,38.90
2019-02-15T04:40:15.912Z,39.00
2019-02-15T04:43:21.304Z,39.00
2019-02-15T04:46:26.720Z,39.10
2019-02-15T04:49:32.122Z,39.10
2019-02-15T04:52:37.484Z,39.10
2019-02-15T04:55:42.898Z,39.20
2019-02-15T04:58:48.291Z,39.20
2019-02-15T05:01:53.691Z,39.20
2019-02-15T05:04:59.060Z,39.30
2019-02-15T05:08:04.503Z,39.40
2019-02-15T05:11:09.913Z,39.30
2019-02-15T05:14:15.298Z,39.30
2019-02-15T05:17:20.729Z,39.40
2019-02-15T05:20:26.132Z,39.40
2019-02-15T05:23:34.134Z,40.20
2019-02-15T05:26:40.714Z,39.80
2019-02-15T05:29:46.121Z,40.10
2019-02-15T05:32:52.067Z,40.10
2019-02-15T05:35:57.482Z,39.90
2019-02-15T05:39:04.702Z,39.70
2019-02-15T05:42:11.217Z,39.50
2019-02-15T05:45:16.615Z,39.50
2019-02-15T05:48:22.008Z,39.50
2019-02-15T05:51:29.227Z,39.50
2019-02-15T05:54:34.629Z,39.50
2019-02-15T05:57:40.059Z,39.50
2019-02-15T06:00:45.443Z,39.50
2019-02-15T06:03:50.847Z,40.10
2019-02-15T06:06:56.273Z,39.60
2019-02-15T06:10:01.686Z,39.60
2019-02-15T06:13:07.144Z,39.60
2019-02-15T06:16:14.002Z,39.70
2019-02-15T06:19:19.400Z,39.70
2019-02-15T06:22:24.777Z,39.60
2019-02-15T06:25:31.685Z,39.60
2019-02-15T06:28:37.062Z,39.60
2019-02-15T06:31:44.713Z,39.50
2019-02-15T06:34:51.133Z,39.50
2019-02-15T06:37:59.446Z,39.30
2019-02-15T06:41:05.055Z,39.30
2019-02-15T06:44:10.469Z,39.30
2019-02-15T06:47:17.821Z,39.20
2019-02-15T06:50:23.230Z,39.20
2019-02-15T06:53:28.634Z,39.20
2019-02-15T06:56:34.040Z,39.10
2019-02-15T07:00:07.468Z,39.10
2019-02-15T07:03:47.229Z,39.20
2019-02-15T07:06:54.431Z,39.20
2019-02-15T07:09:59.853Z,39.20
2019-02-15T07:13:07.052Z,39.10
2019-02-15T07:16:16.120Z,39.20
2019-02-15T07:19:21.549Z,39.30
2019-02-15T07:22:26.948Z,39.20
2019-02-15T07:25:33.950Z,39.10
2019-02-15T07:28:39.822Z,39.00
2019-02-15T07:31:45.619Z,39.70
2019-02-15T07:34:51.052Z,39.00
2019-02-15T07:37:56.451Z,38.80
2019-02-15T07:41:01.847Z,39.30
2019-02-15T07:44:09.071Z,38.60
2019-02-15T07:47:14.661Z,38.30
2019-02-15T07:50:21.878Z,37.70
2019-02-15T07:53:27.258Z,37.20
2019-02-15T07:56:32.644Z,36.60
2019-02-15T07:59:38.064Z,35.90
2019-02-15T08:02:43.423Z,35.20
2019-02-15T08:05:48.821Z,34.90
2019-02-15T08:08:54.244Z,36.10
2019-02-15T08:11:59.826Z,36.50
2019-02-15T08:15:05.472Z,37.10
2019-02-15T08:18:10.842Z,37.40
2019-02-15T08:21:16.638Z,37.60
2019-02-15T08:24:22.279Z,37.60
2019-02-15T08:27:27.691Z,37.70
2019-02-15T08:30:33.064Z,37.70
2019-02-15T08:33:39.598Z,37.70
2019-02-15T08:36:45.039Z,37.60
2019-02-15T08:39:50.424Z,37.60
2019-02-15T08:42:56.238Z,37.60
2019-02-15T08:46:03.441Z,37.40
2019-02-15T08:49:08.777Z,37.00
2019-02-15T08:52:14.169Z,36.40
2019-02-15T08:55:19.592Z,36.20
2019-02-15T08:58:25.287Z,36.00
2019-02-15T09:01:30.698Z,36.00
2019-02-15T09:04:36.088Z,36.00
2019-02-15T09:07:41.909Z,36.00
2019-02-15T09:10:49.130Z,36.60
2019-02-15T09:13:54.534Z,36.20
2019-02-15T09:16:59.954Z,36.30
2019-02-15T09:20:06.559Z,36.30
2019-02-15T09:23:12.335Z,36.50
2019-02-15T09:26:18.375Z,36.60
2019-02-15T09:29:24.010Z,37.30
2019-02-15T09:32:29.469Z,36.60
2019-02-15T09:35:34.923Z,36.70
2019-02-15T09:38:40.352Z,37.30
2019-02-15T09:41:45.744Z,36.50
2019-02-15T09:44:51.165Z,36.40
2019-02-15T09:47:56.539Z,36.40
2019-02-15T09:51:01.922Z,36.30
2019-02-15T09:54:07.335Z,36.30
2019-02-15T09:57:12.712Z,36.20
2019-02-15T10:00:19.211Z,36.10
2019-02-15T10:03:24.630Z,36.10
2019-02-15T10:06:31.911Z,36.00
2019-02-15T10:09:37.309Z,36.50
2019-02-15T10:12:43.810Z,35.90
2019-02-15T10:15:49.192Z,35.90
2019-02-15T10:18:54.652Z,35.90
2019-02-15T10:22:00.003Z,36.10
2019-02-15T10:25:05.918Z,36.10
2019-02-15T10:28:11.324Z,36.20
2019-02-15T10:31:18.309Z,36.20
2019-02-15T10:34:24.816Z,36.30
2019-02-15T10:37:30.229Z,36.40
2019-02-15T10:40:35.657Z,36.50
2019-02-15T10:43:41.082Z,36.60
2019-02-15T10:46:46.474Z,36.60
2019-02-15T10:49:51.909Z,36.60
2019-02-15T10:52:58.795Z,36.60
2019-02-15T10:56:05.398Z,36.70
2019-02-15T10:59:11.268Z,36.70
2019-02-15T11:02:18.470Z,36.70
2019-02-15T11:05:24.877Z,36.80
2019-02-15T11:08:30.273Z,36.80
2019-02-15T11:11:35.824Z,36.90
2019-02-15T11:14:41.562Z,36.80
2019-02-15T11:17:48.191Z,36.90
2019-02-15T11:20:53.561Z,36.80
2019-02-15T11:23:58.977Z,36.80
2019-02-15T11:27:04.366Z,36.80
2019-02-15T11:30:12.767Z,36.80
2019-02-15T11:33:18.155Z,36.80
2019-02-15T11:36:25.990Z,36.90
2019-02-15T11:39:31.360Z,36.90
2019-02-15T11:42:36.765Z,36.90
2019-02-15T11:45:42.170Z,37.00
2019-02-15T11:48:47.575Z,36.90
2019-02-15T11:51:52.988Z,37.00
2019-02-15T11:55:03.937Z,37.10
2019-02-15T11:58:09.358Z,37.10
2019-02-15T12:01:14.815Z,37.20
2019-02-15T12:04:20.240Z,37.20
2019-02-15T12:07:25.635Z,37.30
2019-02-15T12:10:31.565Z,37.30
2019-02-15T12:13:37.018Z,37.30
2019-02-15T12:16:42.424Z,37.30
2019-02-15T12:19:50.219Z,37.40
2019-02-15T12:22:55.617Z,37.80
2019-02-15T12:26:01.055Z,37.80
2019-02-15T12:29:06.446Z,37.90
2019-02-15T12:32:11.870Z,37.80
2019-02-15T12:35:18.469Z,37.80
2019-02-15T12:38:23.874Z,37.80
2019-02-15T12:41:29.267Z,37.70
2019-02-15T12:44:34.678Z,38.30
2019-02-15T12:47:40.065Z,37.80
2019-02-15T12:50:45.566Z,37.90
2019-02-15T12:53:51.803Z,38.00
2019-02-15T12:56:57.231Z,37.90
2019-02-15T13:00:13.892Z,37.90
2019-02-15T13:03:38.378Z,37.80
2019-02-15T13:06:46.911Z,37.80
2019-02-15T13:09:52.392Z,37.80
2019-02-15T13:12:58.809Z,38.00
2019-02-15T13:16:11.409Z,38.00
2019-02-15T13:19:21.155Z,38.00
2019-02-15T13:22:39.216Z,38.00
2019-02-15T13:25:54.988Z,38.10
2019-02-15T13:29:09.534Z,37.90
2019-02-15T13:32:36.758Z,38.00
2019-02-15T13:35:48.907Z,38.20
2019-02-15T13:38:56.096Z,38.10
2019-02-15T13:42:01.500Z,38.20
2019-02-15T13:45:08.753Z,38.40
2019-02-15T13:48:14.137Z,39.10
2019-02-15T13:51:19.511Z,38.30
2019-02-15T13:54:26.432Z,38.10
2019-02-15T13:57:31.868Z,38.10
2019-02-15T14:00:38.837Z,38.50
2019-02-15T14:03:44.238Z,38.30
2019-02-15T14:06:56.096Z,38.10
2019-02-15T14:10:03.324Z,38.40
2019-02-15T14:13:09.208Z,40.00
2019-02-15T14:16:14.610Z,38.80
2019-02-15T14:19:20.019Z,38.60
2019-02-15T14:22:25.587Z,38.50
2019-02-15T14:25:31.128Z,38.40
2019-02-15T14:28:36.597Z,38.20
2019-02-15T14:31:42.016Z,38.10
2019-02-15T14:34:47.430Z,38.00
2019-02-15T14:37:53.270Z,37.90
2019-02-15T14:41:00.475Z,38.40
2019-02-15T14:44:05.900Z,37.80
2019-02-15T14:47:11.300Z,37.70
2019-02-15T14:50:16.766Z,37.60
2019-02-15T14:53:22.145Z,37.50
2019-02-15T14:56:27.540Z,37.60
2019-02-15T14:59:33.062Z,37.60
2019-02-15T15:02:38.601Z,37.50
2019-02-15T15:05:43.983Z,37.50
2019-02-15T15:08:52.707Z,37.50
2019-02-15T15:11:58.121Z,37.40
2019-02-15T15:15:04.525Z,37.60
2019-02-15T15:18:13.405Z,38.30
2019-02-15T15:21:19.163Z,38.00
2019-02-15T15:24:25.407Z,38.20
2019-02-15T15:27:31.707Z,38.10
2019-02-15T15:30:38.079Z,38.30
2019-02-15T15:33:43.971Z,38.20
2019-02-15T15:36:50.173Z,38.30
2019-02-15T15:39:56.266Z,38.30
2019-02-15T15:43:03.798Z,38.10
2019-02-15T15:46:10.151Z,38.50
2019-02-15T15:49:17.004Z,39.50
2019-02-15T15:52:23.566Z,38.80
2019-02-15T15:55:29.786Z,38.70
2019-02-15T15:58:36.179Z,38.60
2019-02-15T16:01:42.625Z,39.70
2019-02-15T16:04:48.078Z,39.00
2019-02-15T16:07:53.528Z,39.00
2019-02-15T16:10:59.140Z,38.50
2019-02-15T16:14:07.690Z,38.70
2019-02-15T16:17:13.206Z,38.60
2019-02-15T16:20:19.744Z,38.60
2019-02-15T16:23:25.294Z,38.80
2019-02-15T16:26:30.690Z,38.80
2019-02-15T16:29:37.310Z,38.90
2019-02-15T16:32:44.594Z,39.50
2019-02-15T16:35:51.524Z,39.20
2019-02-15T16:38:59.789Z,39.10
2019-02-15T16:42:05.224Z,39.20
2019-02-15T16:45:13.028Z,40.30
2019-02-15T16:48:18.450Z,40.30
2019-02-15T16:51:23.871Z,39.60
2019-02-15T16:54:29.281Z,39.40
2019-02-15T16:57:35.028Z,39.30
2019-02-15T17:00:40.587Z,39.40
2019-02-15T17:03:46.035Z,39.30
2019-02-15T17:06:51.472Z,39.20
2019-02-15T17:09:56.868Z,39.00
2019-02-15T17:13:02.250Z,38.80
2019-02-15T17:16:07.866Z,39.00
2019-02-15T17:19:13.299Z,38.90
2019-02-15T17:22:20.489Z,38.80
2019-02-15T17:25:26.047Z,38.80
2019-02-15T17:28:32.582Z,38.80
2019-02-15T17:31:39.592Z,38.70
2019-02-15T17:34:45.364Z,38.60
2019-02-15T17:37:50.777Z,38.60
2019-02-15T17:40:56.169Z,38.50
2019-02-15T17:44:02.247Z,38.50
2019-02-15T17:47:07.981Z,38.40
2019-02-15T17:50:15.280Z,38.40
2019-02-15T17:53:20.677Z,38.40
2019-02-15T17:56:26.050Z,38.30
2019-02-15T17:59:31.471Z,38.40
2019-02-15T18:02:36.856Z,38.40
2019-02-15T18:05:42.276Z,38.40
2019-02-15T18:08:48.066Z,38.30
2019-02-15T18:11:53.463Z,38.40
2019-02-15T18:14:58.925Z,38.40
2019-02-15T18:18:04.342Z,38.40
2019-02-15T18:21:11.932Z,38.60
2019-02-15T18:24:17.307Z,38.40
2019-02-15T18:27:25.674Z,38.40
2019-02-15T18:30:32.110Z,38.30
2019-02-15T18:33:37.569Z,38.30
2019-02-15T18:36:42.997Z,38.40
2019-02-15T18:39:48.375Z,38.40
2019-02-15T18:42:53.755Z,37.90
2019-02-15T18:45:59.137Z,38.30
2019-02-15T18:49:08.005Z,38.30
2019-02-15T18:52:13.745Z,38.30
2019-02-15T18:55:19.434Z,38.30
2019-02-15T18:58:25.260Z,38.40
2019-02-15T19:01:30.694Z,38.30
2019-02-15T19:04:36.190Z,38.30
2019-02-15T19:07:41.554Z,38.40
2019-02-15T19:10:46.999Z,38.30
2019-02-15T19:13:55.422Z,38.30
2019-02-15T19:17:00.793Z,38.30
2019-02-15T19:20:07.234Z,38.40
2019-02-15T19:23:12.649Z,38.30
2019-02-15T19:26:21.055Z,38.30
2019-02-15T19:29:26.443Z,38.40
2019-02-15T19:32:32.185Z,38.40
2019-02-15T19:35:39.159Z,38.40
2019-02-15T19:38:46.113Z,38.50
2019-02-15T19:41:53.020Z,38.70
2019-02-15T19:44:59.599Z,38.40
2019-02-15T19:48:06.243Z,38.30
2019-02-15T19:51:14.900Z,38.40
2019-02-15T19:54:20.312Z,38.50
2019-02-15T19:57:25.709Z,38.40
2019-02-15T20:00:31.954Z,38.90
2019-02-15T20:03:38.939Z,38.40
2019-02-15T20:06:44.343Z,38.50
2019-02-15T20:09:49.733Z,38.40
2019-02-15T20:12:55.158Z,38.40
2019-02-15T20:16:00.900Z,38.30
2019-02-15T20:19:06.619Z,38.40
2019-02-15T20:22:13.238Z,38.40
2019-02-15T20:25:19.118Z,38.40
2019-02-15T20:28:24.497Z,38.40
2019-02-15T20:31:29.903Z,38.40
2019-02-15T20:34:35.372Z,38.40
2019-02-15T20:37:40.778Z,38.40
2019-02-15T20:40:46.163Z,38.30
2019-02-15T20:43:51.620Z,38.30
2019-02-15T20:46:59.027Z,38.40
2019-02-15T20:50:04.430Z,38.40
2019-02-15T20:53:11.646Z,38.40
2019-02-15T20:56:18.531Z,38.50
2019-02-15T20:59:24.332Z,38.40
2019-02-15T21:02:29.699Z,38.40
2019-02-15T21:05:35.115Z,39.10
2019-02-15T21:08:40.901Z,38.50
2019-02-15T21:11:46.668Z,38.40
2019-02-15T21:14:52.079Z,38.50
2019-02-15T21:18:00.323Z,38.60
2019-02-15T21:21:05.756Z,38.60
2019-02-15T21:24:13.809Z,38.80
2019-02-15T21:27:19.421Z,38.80
2019-02-15T21:30:24.910Z,38.80
2019-02-15T21:33:30.414Z,39.00
2019-02-15T21:36:37.184Z,39.00
2019-02-15T21:39:42.610Z,39.00
2019-02-15T21:42:48.370Z,39.10
2019-02-15T21:45:54.156Z,39.20
2019-02-15T21:48:59.587Z,39.30
2019-02-15T21:52:05.351Z,39.40
2019-02-15T21:55:10.999Z,39.50
2019-02-15T21:58:16.358Z,39.60
2019-02-15T22:01:21.744Z,39.70
2019-02-15T22:04:27.349Z,39.70
2019-02-15T22:07:33.180Z,39.80
2019-02-15T22:10:38.584Z,39.80
2019-02-15T22:13:45.817Z,39.90
2019-02-15T22:16:53.985Z,40.00
2019-02-15T22:20:01.218Z,40.00
2019-02-15T22:23:06.637Z,40.10
2019-02-15T22:26:11.989Z,40.00
2019-02-15T22:29:17.419Z,40.00
2019-02-15T22:32:23.142Z,39.90
2019-02-15T22:35:28.637Z,40.00
2019-02-15T22:38:34.062Z,39.90
2019-02-15T22:41:39.930Z,39.70
2019-02-15T22:44:45.327Z,39.70
2019-02-15T22:47:51.081Z,39.70
2019-02-15T22:50:56.474Z,39.70
2019-02-15T22:54:01.837Z,39.70
2019-02-15T22:57:07.743Z,39.70
2019-02-15T23:00:22.565Z,39.60
2019-02-15T23:03:28.594Z,39.50
2019-02-15T23:06:34.020Z,39.50
2019-02-15T23:09:39.799Z,39.50
2019-02-15T23:12:46.510Z,39.50
2019-02-15T23:15:53.469Z,39.40
2019-02-15T23:18:59.300Z,39.40
2019-02-15T23:22:04.694Z,39.40
2019-02-15T23:25:10.114Z,39.30
2019-02-15T23:28:15.513Z,39.30
2019-02-15T23:31:20.921Z,39.30
2019-02-15T23:34:26.736Z,39.30
2019-02-15T23:37:33.215Z,39.30
2019-02-15T23:40:39.036Z,39.20
2019-02-15T23:43:44.421Z,39.20
2019-02-15T23:46:49.821Z,39.20
2019-02-15T23:49:55.219Z,39.30
2019-02-15T23:53:00.651Z,39.20
2019-02-15T23:56:06.031Z,39.10
2019-02-15T23:59:11.396Z,38.90
